Pointe-des-Monts, Canada
Current Conditions -  °F | °C
As of 1:00 AM on Thursday 23 Oct 2014 (Local Time) from CYBC Reporting Station
Clear Clear  
Wind Chill: 34°   Ceiling: Unl
Heat Index: 34°   Visibility: 9mi
Dew Point: 30°   Wind: 3mph
Humidity: 87%   Direction: 20°NNE
Pressure: 30.42"   Gusts: NA
Location:  49.32°N, 67.38°W
Report Text: CYBC 230500Z AUTO 02003KT 9SM CLR 01/M01 A3042 RMK SLP303
Loading
Personal Weather Stations






























Interactive Weather Map
Tropical Storm Tracking
New forecast layout! Learn more

10-Day Weather Forecast

Advertisements
Track Severe Weather on mobile